sensor_id;sensor_type;location;lat;lon;timestamp;P1;durP1;ratioP1;P2;durP2;ratioP2
57337;SDS011;43173;50.980;18.204;2022-09-12T00:00:47;9.70;;;7.00;;
57337;SDS011;43173;50.980;18.204;2022-09-12T00:03:13;9.30;;;6.70;;
57337;SDS011;43173;50.980;18.204;2022-09-12T00:05:40;10.20;;;7.00;;
57337;SDS011;43173;50.980;18.204;2022-09-12T00:08:09;9.00;;;7.10;;
57337;SDS011;43173;50.980;18.204;2022-09-12T00:10:37;9.80;;;6.70;;
57337;SDS011;43173;50.980;18.204;2022-09-12T00:13:06;10.50;;;7.20;;
57337;SDS011;43173;50.980;18.204;2022-09-12T00:15:36;10.70;;;7.60;;
57337;SDS011;43173;50.980;18.204;2022-09-12T00:18:03;8.50;;;6.30;;
57337;SDS011;43173;50.980;18.204;2022-09-12T00:20:29;12.80;;;7.20;;
57337;SDS011;43173;50.980;18.204;2022-09-12T00:22:55;12.20;;;7.90;;
57337;SDS011;43173;50.980;18.204;2022-09-12T00:25:20;13.30;;;7.30;;
57337;SDS011;43173;50.980;18.204;2022-09-12T00:27:46;10.90;;;7.30;;
57337;SDS011;43173;50.980;18.204;2022-09-12T00:30:11;10.70;;;8.20;;
57337;SDS011;43173;50.980;18.204;2022-09-12T00:32:37;12.70;;;7.40;;
57337;SDS011;43173;50.980;18.204;2022-09-12T00:35:03;11.40;;;7.40;;
57337;SDS011;43173;50.980;18.204;2022-09-12T00:37:29;12.30;;;7.60;;
57337;SDS011;43173;50.980;18.204;2022-09-12T00:39:56;11.00;;;7.30;;
57337;SDS011;43173;50.980;18.204;2022-09-12T00:42:22;10.60;;;7.90;;
57337;SDS011;43173;50.980;18.204;2022-09-12T00:44:48;9.50;;;7.50;;
57337;SDS011;43173;50.980;18.204;2022-09-12T00:50:10;8.90;;;6.80;;
57337;SDS011;43173;50.980;18.204;2022-09-12T00:52:44;10.20;;;6.70;;
57337;SDS011;43173;50.980;18.204;2022-09-12T00:57:58;13.40;;;7.90;;
57337;SDS011;43173;50.980;18.204;2022-09-12T01:00:30;11.60;;;7.40;;
57337;SDS011;43173;50.980;18.204;2022-09-12T01:02:57;9.60;;;6.70;;
57337;SDS011;43173;50.980;18.204;2022-09-12T01:05:27;13.10;;;7.20;;
57337;SDS011;43173;50.980;18.204;2022-09-12T01:07:53;9.90;;;7.30;;
57337;SDS011;43173;50.980;18.204;2022-09-12T01:10:21;9.40;;;6.50;;
57337;SDS011;43173;50.980;18.204;2022-09-12T01:12:47;10.10;;;6.50;;
57337;SDS011;43173;50.980;18.204;2022-09-12T01:15:12;10.10;;;7.50;;
57337;SDS011;43173;50.980;18.204;2022-09-12T01:37:44;26.70;;;19.10;;
57337;SDS011;43173;50.980;18.204;2022-09-12T01:43:21;32.10;;;24.90;;
57337;SDS011;43173;50.980;18.204;2022-09-12T01:45:52;34.50;;;27.30;;
57337;SDS011;43173;50.980;18.204;2022-09-12T01:48:23;37.80;;;29.80;;
57337;SDS011;43173;50.980;18.204;2022-09-12T01:50:54;36.70;;;28.70;;
57337;SDS011;43173;50.980;18.204;2022-09-12T01:53:42;35.90;;;25.80;;
57337;SDS011;43173;50.980;18.204;2022-09-12T01:56:12;29.30;;;21.50;;
57337;SDS011;43173;50.980;18.204;2022-09-12T01:58:54;23.90;;;17.90;;
57337;SDS011;43173;50.980;18.204;2022-09-12T02:01:45;22.60;;;14.30;;
57337;SDS011;43173;50.980;18.204;2022-09-12T02:04:18;15.20;;;12.20;;
57337;SDS011;43173;50.980;18.204;2022-09-12T02:09:25;15.10;;;11.20;;
57337;SDS011;43173;50.980;18.204;2022-09-12T02:11:56;16.30;;;11.80;;
57337;SDS011;43173;50.980;18.204;2022-09-12T02:14:24;15.50;;;11.40;;
57337;SDS011;43173;50.980;18.204;2022-09-12T02:16:54;15.10;;;11.20;;
57337;SDS011;43173;50.980;18.204;2022-09-12T02:19:23;15.80;;;11.00;;
57337;SDS011;43173;50.980;18.204;2022-09-12T02:21:54;14.50;;;10.90;;
57337;SDS011;43173;50.980;18.204;2022-09-12T02:24:23;17.60;;;12.90;;
57337;SDS011;43173;50.980;18.204;2022-09-12T02:26:53;22.30;;;14.70;;
57337;SDS011;43173;50.980;18.204;2022-09-12T02:29:22;23.60;;;15.40;;
57337;SDS011;43173;50.980;18.204;2022-09-12T02:31:50;23.60;;;17.20;;
57337;SDS011;43173;50.980;18.204;2022-09-12T02:39:27;15.70;;;11.20;;
57337;SDS011;43173;50.980;18.204;2022-09-12T02:41:53;17.10;;;11.30;;
57337;SDS011;43173;50.980;18.204;2022-09-12T02:44:21;13.30;;;10.40;;
57337;SDS011;43173;50.980;18.204;2022-09-12T02:46:49;13.70;;;9.60;;
57337;SDS011;43173;50.980;18.204;2022-09-12T02:49:18;13.70;;;8.20;;
57337;SDS011;43173;50.980;18.204;2022-09-12T02:51:45;11.80;;;8.00;;
57337;SDS011;43173;50.980;18.204;2022-09-12T02:54:11;14.00;;;8.80;;
57337;SDS011;43173;50.980;18.204;2022-09-12T02:56:40;11.50;;;7.90;;
57337;SDS011;43173;50.980;18.204;2022-09-12T02:59:07;12.30;;;8.50;;
57337;SDS011;43173;50.980;18.204;2022-09-12T03:09:33;10.20;;;8.40;;
57337;SDS011;43173;50.980;18.204;2022-09-12T03:12:15;13.00;;;7.50;;
57337;SDS011;43173;50.980;18.204;2022-09-12T03:15:06;11.40;;;8.10;;
57337;SDS011;43173;50.980;18.204;2022-09-12T03:21:03;14.10;;;8.60;;
57337;SDS011;43173;50.980;18.204;2022-09-12T03:28:58;11.40;;;7.90;;
57337;SDS011;43173;50.980;18.204;2022-09-12T03:31:25;12.40;;;8.90;;
57337;SDS011;43173;50.980;18.204;2022-09-12T03:33:50;12.60;;;9.00;;
57337;SDS011;43173;50.980;18.204;2022-09-12T03:36:22;17.40;;;8.80;;
57337;SDS011;43173;50.980;18.204;2022-09-12T03:38:49;11.50;;;8.20;;
57337;SDS011;43173;50.980;18.204;2022-09-12T03:41:15;11.80;;;8.20;;
57337;SDS011;43173;50.980;18.204;2022-09-12T03:43:40;13.60;;;8.60;;
57337;SDS011;43173;50.980;18.204;2022-09-12T03:46:06;14.10;;;8.40;;
57337;SDS011;43173;50.980;18.204;2022-09-12T03:48:32;14.90;;;8.90;;
57337;SDS011;43173;50.980;18.204;2022-09-12T03:50:59;13.30;;;9.00;;
57337;SDS011;43173;50.980;18.204;2022-09-12T03:53:29;13.10;;;8.20;;
57337;SDS011;43173;50.980;18.204;2022-09-12T03:55:56;12.90;;;8.60;;
57337;SDS011;43173;50.980;18.204;2022-09-12T03:58:22;15.20;;;8.20;;
57337;SDS011;43173;50.980;18.204;2022-09-12T04:00:48;14.80;;;8.10;;
57337;SDS011;43173;50.980;18.204;2022-09-12T04:03:14;16.10;;;8.60;;
57337;SDS011;43173;50.980;18.204;2022-09-12T04:05:39;12.00;;;8.20;;
57337;SDS011;43173;50.980;18.204;2022-09-12T04:08:05;13.00;;;8.10;;
57337;SDS011;43173;50.980;18.204;2022-09-12T04:10:31;14.00;;;9.60;;
57337;SDS011;43173;50.980;18.204;2022-09-12T04:12:56;12.50;;;8.40;;
57337;SDS011;43173;50.980;18.204;2022-09-12T04:15:23;10.90;;;8.10;;
57337;SDS011;43173;50.980;18.204;2022-09-12T04:17:49;12.40;;;7.80;;
57337;SDS011;43173;50.980;18.204;2022-09-12T04:20:14;10.40;;;7.50;;
57337;SDS011;43173;50.980;18.204;2022-09-12T04:22:40;17.20;;;8.20;;
57337;SDS011;43173;50.980;18.204;2022-09-12T04:25:06;12.40;;;7.90;;
57337;SDS011;43173;50.980;18.204;2022-09-12T04:27:40;10.60;;;8.30;;
57337;SDS011;43173;50.980;18.204;2022-09-12T04:30:06;10.60;;;8.30;;
57337;SDS011;43173;50.980;18.204;2022-09-12T04:32:33;13.60;;;8.10;;
57337;SDS011;43173;50.980;18.204;2022-09-12T04:34:59;15.60;;;9.00;;
57337;SDS011;43173;50.980;18.204;2022-09-12T04:37:24;12.60;;;8.40;;
57337;SDS011;43173;50.980;18.204;2022-09-12T04:39:50;11.00;;;7.90;;
57337;SDS011;43173;50.980;18.204;2022-09-12T04:44:48;9.70;;;7.10;;
57337;SDS011;43173;50.980;18.204;2022-09-12T04:47:14;10.50;;;8.00;;
57337;SDS011;43173;50.980;18.204;2022-09-12T04:49:41;10.40;;;8.00;;
57337;SDS011;43173;50.980;18.204;2022-09-12T04:52:07;11.70;;;8.70;;
57337;SDS011;43173;50.980;18.204;2022-09-12T04:54:32;19.50;;;8.40;;
57337;SDS011;43173;50.980;18.204;2022-09-12T04:56:58;13.50;;;8.00;;
57337;SDS011;43173;50.980;18.204;2022-09-12T04:59:25;12.90;;;8.80;;
57337;SDS011;43173;50.980;18.204;2022-09-12T05:01:51;13.50;;;9.00;;
57337;SDS011;43173;50.980;18.204;2022-09-12T05:04:17;12.60;;;9.00;;
57337;SDS011;43173;50.980;18.204;2022-09-12T05:06:43;13.10;;;9.40;;
57337;SDS011;43173;50.980;18.204;2022-09-12T05:09:11;13.70;;;9.20;;
57337;SDS011;43173;50.980;18.204;2022-09-12T05:11:40;15.50;;;9.10;;
57337;SDS011;43173;50.980;18.204;2022-09-12T05:14:08;11.90;;;9.30;;
57337;SDS011;43173;50.980;18.204;2022-09-12T05:16:35;12.40;;;9.30;;
57337;SDS011;43173;50.980;18.204;2022-09-12T05:19:00;12.80;;;8.30;;
57337;SDS011;43173;50.980;18.204;2022-09-12T05:21:26;16.30;;;9.70;;
57337;SDS011;43173;50.980;18.204;2022-09-12T05:23:52;12.40;;;9.40;;
57337;SDS011;43173;50.980;18.204;2022-09-12T05:26:20;16.20;;;10.00;;
57337;SDS011;43173;50.980;18.204;2022-09-12T05:28:47;13.90;;;8.90;;
57337;SDS011;43173;50.980;18.204;2022-09-12T05:31:15;13.10;;;9.60;;
57337;SDS011;43173;50.980;18.204;2022-09-12T05:33:43;12.20;;;8.40;;
57337;SDS011;43173;50.980;18.204;2022-09-12T05:36:11;12.40;;;8.50;;
57337;SDS011;43173;50.980;18.204;2022-09-12T05:38:38;13.30;;;8.10;;
57337;SDS011;43173;50.980;18.204;2022-09-12T05:41:14;11.60;;;8.20;;
57337;SDS011;43173;50.980;18.204;2022-09-12T05:43:45;12.40;;;8.10;;
57337;SDS011;43173;50.980;18.204;2022-09-12T05:46:15;10.80;;;7.80;;
57337;SDS011;43173;50.980;18.204;2022-09-12T05:48:44;10.80;;;7.90;;
57337;SDS011;43173;50.980;18.204;2022-09-12T05:51:12;11.70;;;7.90;;
57337;SDS011;43173;50.980;18.204;2022-09-12T05:53:44;10.40;;;7.40;;
57337;SDS011;43173;50.980;18.204;2022-09-12T05:56:12;10.00;;;6.80;;
57337;SDS011;43173;50.980;18.204;2022-09-12T05:58:41;9.60;;;7.10;;
57337;SDS011;43173;50.980;18.204;2022-09-12T06:01:09;9.70;;;6.90;;
57337;SDS011;43173;50.980;18.204;2022-09-12T06:03:45;12.40;;;5.60;;
57337;SDS011;43173;50.980;18.204;2022-09-12T06:06:13;7.20;;;5.70;;
57337;SDS011;43173;50.980;18.204;2022-09-12T06:08:41;10.10;;;6.40;;
57337;SDS011;43173;50.980;18.204;2022-09-12T06:11:08;9.10;;;6.00;;
57337;SDS011;43173;50.980;18.204;2022-09-12T06:13:36;10.50;;;6.10;;
57337;SDS011;43173;50.980;18.204;2022-09-12T06:16:05;11.30;;;6.60;;
57337;SDS011;43173;50.980;18.204;2022-09-12T06:18:32;11.20;;;6.00;;
57337;SDS011;43173;50.980;18.204;2022-09-12T06:21:06;10.00;;;5.90;;
57337;SDS011;43173;50.980;18.204;2022-09-12T06:23:33;8.50;;;5.60;;
57337;SDS011;43173;50.980;18.204;2022-09-12T06:25:59;7.40;;;6.00;;
57337;SDS011;43173;50.980;18.204;2022-09-12T06:28:26;9.80;;;6.10;;
57337;SDS011;43173;50.980;18.204;2022-09-12T06:30:51;7.90;;;5.40;;
57337;SDS011;43173;50.980;18.204;2022-09-12T06:33:18;9.40;;;5.10;;
57337;SDS011;43173;50.980;18.204;2022-09-12T06:35:44;8.20;;;5.40;;
57337;SDS011;43173;50.980;18.204;2022-09-12T06:38:09;7.00;;;5.00;;
57337;SDS011;43173;50.980;18.204;2022-09-12T06:40:42;8.70;;;5.40;;
57337;SDS011;43173;50.980;18.204;2022-09-12T06:43:11;8.30;;;5.20;;
57337;SDS011;43173;50.980;18.204;2022-09-12T06:45:38;6.60;;;4.60;;
57337;SDS011;43173;50.980;18.204;2022-09-12T06:48:04;7.40;;;4.90;;
57337;SDS011;43173;50.980;18.204;2022-09-12T06:50:30;6.70;;;4.50;;
57337;SDS011;43173;50.980;18.204;2022-09-12T06:52:56;7.20;;;4.70;;
57337;SDS011;43173;50.980;18.204;2022-09-12T06:55:22;6.70;;;4.10;;
57337;SDS011;43173;50.980;18.204;2022-09-12T06:57:49;9.10;;;4.00;;
57337;SDS011;43173;50.980;18.204;2022-09-12T07:00:14;7.00;;;4.20;;
57337;SDS011;43173;50.980;18.204;2022-09-12T07:02:40;5.10;;;3.70;;
57337;SDS011;43173;50.980;18.204;2022-09-12T07:05:06;8.00;;;3.80;;
57337;SDS011;43173;50.980;18.204;2022-09-12T07:07:33;6.90;;;3.90;;
57337;SDS011;43173;50.980;18.204;2022-09-12T07:10:00;7.10;;;3.90;;
57337;SDS011;43173;50.980;18.204;2022-09-12T07:12:29;5.60;;;3.40;;
57337;SDS011;43173;50.980;18.204;2022-09-12T07:14:55;8.00;;;3.60;;
57337;SDS011;43173;50.980;18.204;2022-09-12T07:17:21;9.20;;;3.60;;
57337;SDS011;43173;50.980;18.204;2022-09-12T07:19:49;5.30;;;3.30;;
57337;SDS011;43173;50.980;18.204;2022-09-12T07:22:14;6.50;;;3.30;;
57337;SDS011;43173;50.980;18.204;2022-09-12T07:24:40;5.90;;;3.10;;
57337;SDS011;43173;50.980;18.204;2022-09-12T07:27:06;6.00;;;3.20;;
57337;SDS011;43173;50.980;18.204;2022-09-12T07:29:32;5.60;;;2.90;;
57337;SDS011;43173;50.980;18.204;2022-09-12T07:31:57;4.30;;;3.10;;
57337;SDS011;43173;50.980;18.204;2022-09-12T07:34:26;4.40;;;3.00;;
57337;SDS011;43173;50.980;18.204;2022-09-12T07:36:51;6.70;;;3.30;;
57337;SDS011;43173;50.980;18.204;2022-09-12T07:39:17;6.10;;;2.80;;
57337;SDS011;43173;50.980;18.204;2022-09-12T07:41:42;5.50;;;3.20;;
57337;SDS011;43173;50.980;18.204;2022-09-12T07:44:08;7.40;;;3.30;;
57337;SDS011;43173;50.980;18.204;2022-09-12T07:46:34;5.10;;;3.00;;
57337;SDS011;43173;50.980;18.204;2022-09-12T07:49:00;4.60;;;2.90;;
57337;SDS011;43173;50.980;18.204;2022-09-12T07:51:27;3.70;;;2.80;;
57337;SDS011;43173;50.980;18.204;2022-09-12T07:53:53;3.70;;;2.50;;
57337;SDS011;43173;50.980;18.204;2022-09-12T07:56:21;6.10;;;2.50;;
57337;SDS011;43173;50.980;18.204;2022-09-12T07:58:47;4.20;;;2.50;;
57337;SDS011;43173;50.980;18.204;2022-09-12T08:01:14;6.60;;;3.10;;
57337;SDS011;43173;50.980;18.204;2022-09-12T08:03:42;4.80;;;2.60;;
57337;SDS011;43173;50.980;18.204;2022-09-12T08:06:10;6.40;;;2.90;;
57337;SDS011;43173;50.980;18.204;2022-09-12T08:08:38;5.30;;;3.10;;
57337;SDS011;43173;50.980;18.204;2022-09-12T08:11:06;8.20;;;3.30;;
57337;SDS011;43173;50.980;18.204;2022-09-12T08:13:34;3.70;;;2.60;;
57337;SDS011;43173;50.980;18.204;2022-09-12T08:16:02;5.60;;;3.20;;
57337;SDS011;43173;50.980;18.204;2022-09-12T08:18:30;7.40;;;2.70;;
57337;SDS011;43173;50.980;18.204;2022-09-12T08:21:04;4.90;;;2.80;;
57337;SDS011;43173;50.980;18.204;2022-09-12T08:23:30;5.70;;;2.70;;
57337;SDS011;43173;50.980;18.204;2022-09-12T08:26:00;7.60;;;2.90;;
57337;SDS011;43173;50.980;18.204;2022-09-12T08:28:27;4.80;;;2.70;;
57337;SDS011;43173;50.980;18.204;2022-09-12T08:33:28;4.80;;;2.60;;
57337;SDS011;43173;50.980;18.204;2022-09-12T08:36:01;5.10;;;2.60;;
57337;SDS011;43173;50.980;18.204;2022-09-12T08:38:32;3.60;;;2.90;;
57337;SDS011;43173;50.980;18.204;2022-09-12T08:41:45;5.30;;;3.20;;
57337;SDS011;43173;50.980;18.204;2022-09-12T08:49:33;5.30;;;2.40;;
57337;SDS011;43173;50.980;18.204;2022-09-12T08:52:04;5.00;;;3.00;;
57337;SDS011;43173;50.980;18.204;2022-09-12T08:54:34;3.70;;;2.60;;
57337;SDS011;43173;50.980;18.204;2022-09-12T08:57:01;4.60;;;2.60;;
57337;SDS011;43173;50.980;18.204;2022-09-12T08:59:31;2.30;;;2.10;;
57337;SDS011;43173;50.980;18.204;2022-09-12T09:02:04;6.00;;;2.70;;
57337;SDS011;43173;50.980;18.204;2022-09-12T09:07:27;5.20;;;2.60;;
57337;SDS011;43173;50.980;18.204;2022-09-12T09:19:02;6.50;;;2.70;;
57337;SDS011;43173;50.980;18.204;2022-09-12T09:21:31;5.20;;;3.10;;
57337;SDS011;43173;50.980;18.204;2022-09-12T09:24:07;4.70;;;2.80;;
57337;SDS011;43173;50.980;18.204;2022-09-12T09:29:25;4.90;;;2.70;;
57337;SDS011;43173;50.980;18.204;2022-09-12T09:31:54;9.20;;;2.90;;
57337;SDS011;43173;50.980;18.204;2022-09-12T09:34:23;7.60;;;3.00;;
57337;SDS011;43173;50.980;18.204;2022-09-12T09:36:51;5.90;;;2.80;;
57337;SDS011;43173;50.980;18.204;2022-09-12T09:42:17;5.60;;;2.60;;
57337;SDS011;43173;50.980;18.204;2022-09-12T09:44:52;4.50;;;2.70;;
57337;SDS011;43173;50.980;18.204;2022-09-12T09:47:20;3.00;;;2.40;;
57337;SDS011;43173;50.980;18.204;2022-09-12T09:49:49;6.10;;;2.70;;
57337;SDS011;43173;50.980;18.204;2022-09-12T09:52:15;3.60;;;2.70;;
57337;SDS011;43173;50.980;18.204;2022-09-12T10:08:22;7.10;;;2.40;;
57337;SDS011;43173;50.980;18.204;2022-09-12T10:10:57;5.90;;;2.60;;
57337;SDS011;43173;50.980;18.204;2022-09-12T10:13:29;3.50;;;2.30;;
57337;SDS011;43173;50.980;18.204;2022-09-12T10:18:47;6.30;;;2.20;;
57337;SDS011;43173;50.980;18.204;2022-09-12T10:21:15;4.70;;;2.50;;
57337;SDS011;43173;50.980;18.204;2022-09-12T10:23:46;6.80;;;2.10;;
57337;SDS011;43173;50.980;18.204;2022-09-12T10:26:13;6.00;;;2.50;;
57337;SDS011;43173;50.980;18.204;2022-09-12T10:28:44;3.90;;;2.60;;
57337;SDS011;43173;50.980;18.204;2022-09-12T10:31:14;6.30;;;2.20;;
57337;SDS011;43173;50.980;18.204;2022-09-12T10:33:59;3.90;;;2.10;;
57337;SDS011;43173;50.980;18.204;2022-09-12T10:36:26;3.70;;;2.10;;
57337;SDS011;43173;50.980;18.204;2022-09-12T10:39:00;4.10;;;2.20;;
57337;SDS011;43173;50.980;18.204;2022-09-12T10:41:33;4.20;;;2.30;;
57337;SDS011;43173;50.980;18.204;2022-09-12T10:44:05;3.80;;;2.60;;
57337;SDS011;43173;50.980;18.204;2022-09-12T10:46:58;4.10;;;2.20;;
57337;SDS011;43173;50.980;18.204;2022-09-12T10:49:30;4.10;;;2.30;;
57337;SDS011;43173;50.980;18.204;2022-09-12T10:54:48;5.80;;;2.50;;
57337;SDS011;43173;50.980;18.204;2022-09-12T10:57:21;3.70;;;2.40;;
57337;SDS011;43173;50.980;18.204;2022-09-12T11:02:39;3.90;;;2.30;;
57337;SDS011;43173;50.980;18.204;2022-09-12T11:25:30;3.90;;;2.20;;
57337;SDS011;43173;50.980;18.204;2022-09-12T11:28:12;4.30;;;2.20;;
57337;SDS011;43173;50.980;18.204;2022-09-12T11:33:51;4.90;;;2.60;;
57337;SDS011;43173;50.980;18.204;2022-09-12T11:41:49;4.20;;;2.60;;
57337;SDS011;43173;50.980;18.204;2022-09-12T11:44:18;6.00;;;2.40;;
57337;SDS011;43173;50.980;18.204;2022-09-12T11:46:57;4.80;;;2.40;;
57337;SDS011;43173;50.980;18.204;2022-09-12T11:52:18;6.90;;;2.70;;
57337;SDS011;43173;50.980;18.204;2022-09-12T11:57:32;2.20;;;2.00;;
57337;SDS011;43173;50.980;18.204;2022-09-12T12:02:42;3.40;;;2.10;;
57337;SDS011;43173;50.980;18.204;2022-09-12T12:07:51;3.60;;;2.40;;
57337;SDS011;43173;50.980;18.204;2022-09-12T12:10:26;5.30;;;2.10;;
57337;SDS011;43173;50.980;18.204;2022-09-12T12:12:54;7.40;;;2.40;;
57337;SDS011;43173;50.980;18.204;2022-09-12T12:15:21;4.20;;;2.00;;
57337;SDS011;43173;50.980;18.204;2022-09-12T12:20:32;3.70;;;2.50;;
57337;SDS011;43173;50.980;18.204;2022-09-12T12:22:59;5.10;;;2.70;;
57337;SDS011;43173;50.980;18.204;2022-09-12T12:25:36;4.60;;;2.80;;
57337;SDS011;43173;50.980;18.204;2022-09-12T12:28:04;4.00;;;2.50;;
57337;SDS011;43173;50.980;18.204;2022-09-12T12:38:44;4.90;;;2.90;;
57337;SDS011;43173;50.980;18.204;2022-09-12T12:47:14;3.30;;;2.50;;
57337;SDS011;43173;50.980;18.204;2022-09-12T12:49:56;3.80;;;2.80;;
57337;SDS011;43173;50.980;18.204;2022-09-12T12:52:26;4.60;;;2.70;;
57337;SDS011;43173;50.980;18.204;2022-09-12T12:54:55;5.70;;;2.70;;
57337;SDS011;43173;50.980;18.204;2022-09-12T12:57:25;3.30;;;2.00;;
57337;SDS011;43173;50.980;18.204;2022-09-12T13:02:35;3.00;;;2.00;;
57337;SDS011;43173;50.980;18.204;2022-09-12T13:05:05;3.20;;;2.10;;
57337;SDS011;43173;50.980;18.204;2022-09-12T13:07:46;6.00;;;2.50;;
57337;SDS011;43173;50.980;18.204;2022-09-12T13:10:22;3.50;;;2.10;;
57337;SDS011;43173;50.980;18.204;2022-09-12T13:12:53;5.20;;;2.00;;
57337;SDS011;43173;50.980;18.204;2022-09-12T13:15:28;2.80;;;2.10;;
57337;SDS011;43173;50.980;18.204;2022-09-12T13:18:16;2.80;;;1.90;;
57337;SDS011;43173;50.980;18.204;2022-09-12T13:20:50;3.00;;;2.10;;
57337;SDS011;43173;50.980;18.204;2022-09-12T13:23:20;3.50;;;2.00;;
57337;SDS011;43173;50.980;18.204;2022-09-12T13:25:56;2.10;;;1.90;;
57337;SDS011;43173;50.980;18.204;2022-09-12T13:28:23;3.40;;;1.80;;
57337;SDS011;43173;50.980;18.204;2022-09-12T13:33:55;3.50;;;2.00;;
57337;SDS011;43173;50.980;18.204;2022-09-12T13:39:37;3.30;;;1.90;;
57337;SDS011;43173;50.980;18.204;2022-09-12T13:45:18;3.50;;;2.30;;
57337;SDS011;43173;50.980;18.204;2022-09-12T13:47:56;3.40;;;2.20;;
57337;SDS011;43173;50.980;18.204;2022-09-12T13:50:26;3.30;;;2.20;;
57337;SDS011;43173;50.980;18.204;2022-09-12T13:52:54;2.70;;;2.00;;
57337;SDS011;43173;50.980;18.204;2022-09-12T14:01:04;3.50;;;1.90;;
57337;SDS011;43173;50.980;18.204;2022-09-12T14:03:33;3.10;;;1.90;;
57337;SDS011;43173;50.980;18.204;2022-09-12T14:12:03;7.40;;;1.90;;
57337;SDS011;43173;50.980;18.204;2022-09-12T14:14:33;3.50;;;2.20;;
57337;SDS011;43173;50.980;18.204;2022-09-12T14:17:13;2.90;;;2.10;;
57337;SDS011;43173;50.980;18.204;2022-09-12T14:19:57;4.00;;;2.00;;
57337;SDS011;43173;50.980;18.204;2022-09-12T14:22:26;3.00;;;1.90;;
57337;SDS011;43173;50.980;18.204;2022-09-12T14:24:54;2.70;;;1.90;;
57337;SDS011;43173;50.980;18.204;2022-09-12T14:27:25;5.60;;;2.20;;
57337;SDS011;43173;50.980;18.204;2022-09-12T14:35:36;2.90;;;1.90;;
57337;SDS011;43173;50.980;18.204;2022-09-12T14:40:58;3.10;;;2.10;;
57337;SDS011;43173;50.980;18.204;2022-09-12T14:43:26;3.80;;;1.70;;
57337;SDS011;43173;50.980;18.204;2022-09-12T14:45:57;4.50;;;1.90;;
57337;SDS011;43173;50.980;18.204;2022-09-12T14:48:24;9.80;;;5.10;;
57337;SDS011;43173;50.980;18.204;2022-09-12T14:50:52;3.40;;;1.70;;
57337;SDS011;43173;50.980;18.204;2022-09-12T14:55:44;3.10;;;2.00;;
57337;SDS011;43173;50.980;18.204;2022-09-12T14:58:15;2.80;;;2.10;;
57337;SDS011;43173;50.980;18.204;2022-09-12T15:00:55;2.90;;;2.00;;
57337;SDS011;43173;50.980;18.204;2022-09-12T15:08:53;3.20;;;2.20;;
57337;SDS011;43173;50.980;18.204;2022-09-12T15:11:20;5.20;;;2.10;;
57337;SDS011;43173;50.980;18.204;2022-09-12T15:13:46;4.80;;;2.00;;
57337;SDS011;43173;50.980;18.204;2022-09-12T15:16:12;1.80;;;1.50;;
57337;SDS011;43173;50.980;18.204;2022-09-12T15:18:38;2.10;;;1.90;;
57337;SDS011;43173;50.980;18.204;2022-09-12T15:21:04;4.60;;;1.50;;
57337;SDS011;43173;50.980;18.204;2022-09-12T15:23:33;4.20;;;1.80;;
57337;SDS011;43173;50.980;18.204;2022-09-12T15:26:02;3.00;;;1.60;;
57337;SDS011;43173;50.980;18.204;2022-09-12T15:28:28;1.40;;;1.30;;
57337;SDS011;43173;50.980;18.204;2022-09-12T15:30:54;3.20;;;1.70;;
57337;SDS011;43173;50.980;18.204;2022-09-12T15:33:22;2.30;;;1.50;;
57337;SDS011;43173;50.980;18.204;2022-09-12T15:35:49;2.70;;;1.80;;
57337;SDS011;43173;50.980;18.204;2022-09-12T15:38:16;3.30;;;1.70;;
57337;SDS011;43173;50.980;18.204;2022-09-12T15:40:43;2.60;;;1.70;;
57337;SDS011;43173;50.980;18.204;2022-09-12T15:43:11;2.90;;;1.80;;
57337;SDS011;43173;50.980;18.204;2022-09-12T15:45:37;3.00;;;1.70;;
57337;SDS011;43173;50.980;18.204;2022-09-12T15:48:03;3.90;;;1.60;;
57337;SDS011;43173;50.980;18.204;2022-09-12T15:50:29;3.40;;;1.50;;
57337;SDS011;43173;50.980;18.204;2022-09-12T15:52:55;3.00;;;1.70;;
57337;SDS011;43173;50.980;18.204;2022-09-12T15:55:25;3.70;;;1.70;;
57337;SDS011;43173;50.980;18.204;2022-09-12T15:57:53;2.50;;;1.80;;
57337;SDS011;43173;50.980;18.204;2022-09-12T16:00:19;2.40;;;2.10;;
57337;SDS011;43173;50.980;18.204;2022-09-12T16:02:46;6.10;;;1.90;;
57337;SDS011;43173;50.980;18.204;2022-09-12T16:05:15;2.50;;;1.80;;
57337;SDS011;43173;50.980;18.204;2022-09-12T16:07:45;3.80;;;1.80;;
57337;SDS011;43173;50.980;18.204;2022-09-12T16:10:15;3.40;;;2.00;;
57337;SDS011;43173;50.980;18.204;2022-09-12T16:15:12;5.50;;;2.00;;
57337;SDS011;43173;50.980;18.204;2022-09-12T16:17:43;5.40;;;2.00;;
57337;SDS011;43173;50.980;18.204;2022-09-12T16:20:09;3.60;;;1.80;;
57337;SDS011;43173;50.980;18.204;2022-09-12T16:22:35;7.00;;;2.10;;
57337;SDS011;43173;50.980;18.204;2022-09-12T16:25:01;4.30;;;2.30;;
57337;SDS011;43173;50.980;18.204;2022-09-12T16:27:26;2.90;;;2.00;;
57337;SDS011;43173;50.980;18.204;2022-09-12T16:29:52;3.20;;;2.20;;
57337;SDS011;43173;50.980;18.204;2022-09-12T16:32:18;4.60;;;2.10;;
57337;SDS011;43173;50.980;18.204;2022-09-12T16:34:43;6.30;;;2.40;;
57337;SDS011;43173;50.980;18.204;2022-09-12T16:37:09;4.20;;;2.10;;
57337;SDS011;43173;50.980;18.204;2022-09-12T16:39:35;3.10;;;2.30;;
57337;SDS011;43173;50.980;18.204;2022-09-12T16:42:00;4.10;;;2.60;;
57337;SDS011;43173;50.980;18.204;2022-09-12T16:44:26;3.10;;;2.50;;
57337;SDS011;43173;50.980;18.204;2022-09-12T16:46:51;5.90;;;2.70;;
57337;SDS011;43173;50.980;18.204;2022-09-12T16:49:18;3.60;;;2.70;;
57337;SDS011;43173;50.980;18.204;2022-09-12T16:51:43;4.80;;;3.00;;
57337;SDS011;43173;50.980;18.204;2022-09-12T16:54:14;5.40;;;3.10;;
57337;SDS011;43173;50.980;18.204;2022-09-12T16:56:41;5.70;;;3.00;;
57337;SDS011;43173;50.980;18.204;2022-09-12T16:59:08;4.80;;;3.00;;
57337;SDS011;43173;50.980;18.204;2022-09-12T17:01:36;3.20;;;2.70;;
57337;SDS011;43173;50.980;18.204;2022-09-12T17:04:03;6.70;;;2.80;;
57337;SDS011;43173;50.980;18.204;2022-09-12T17:06:29;3.20;;;2.50;;
57337;SDS011;43173;50.980;18.204;2022-09-12T17:08:57;4.00;;;2.50;;
57337;SDS011;43173;50.980;18.204;2022-09-12T17:11:28;4.30;;;2.90;;
57337;SDS011;43173;50.980;18.204;2022-09-12T17:13:56;4.80;;;3.00;;
57337;SDS011;43173;50.980;18.204;2022-09-12T17:16:23;3.80;;;2.80;;
57337;SDS011;43173;50.980;18.204;2022-09-12T17:18:50;6.60;;;3.10;;
57337;SDS011;43173;50.980;18.204;2022-09-12T17:21:16;4.80;;;2.90;;
57337;SDS011;43173;50.980;18.204;2022-09-12T17:23:42;5.20;;;3.30;;
57337;SDS011;43173;50.980;18.204;2022-09-12T17:26:08;5.30;;;3.40;;
57337;SDS011;43173;50.980;18.204;2022-09-12T17:28:35;5.20;;;3.70;;
57337;SDS011;43173;50.980;18.204;2022-09-12T17:31:02;5.00;;;3.30;;
57337;SDS011;43173;50.980;18.204;2022-09-12T17:33:29;6.50;;;4.30;;
57337;SDS011;43173;50.980;18.204;2022-09-12T17:38:41;8.50;;;5.50;;
57337;SDS011;43173;50.980;18.204;2022-09-12T17:41:09;9.30;;;5.70;;
57337;SDS011;43173;50.980;18.204;2022-09-12T17:43:40;8.30;;;5.30;;
57337;SDS011;43173;50.980;18.204;2022-09-12T17:46:06;7.30;;;5.00;;
57337;SDS011;43173;50.980;18.204;2022-09-12T17:48:32;8.70;;;5.40;;
57337;SDS011;43173;50.980;18.204;2022-09-12T17:51:05;6.60;;;5.00;;
57337;SDS011;43173;50.980;18.204;2022-09-12T17:53:32;9.10;;;5.40;;
57337;SDS011;43173;50.980;18.204;2022-09-12T17:56:05;6.90;;;5.00;;
57337;SDS011;43173;50.980;18.204;2022-09-12T17:58:31;9.50;;;5.10;;
57337;SDS011;43173;50.980;18.204;2022-09-12T18:01:01;6.60;;;4.70;;
57337;SDS011;43173;50.980;18.204;2022-09-12T18:03:46;6.20;;;4.40;;